• Join FlightAware (Why Join?)
  • Login
  • US Flag 
03:25AM EDT


 

Airport Tracker/Info


-or-


 

Live Flight TrackerFlight Track Log ✈ N45XT ✈ 09-May-2013 ✈ KMDW - KMGY

Flight Track Log - Related Links

Times and Time Zones

All times are in EDT time to prevent confusion due to time zone crossing. See the N45XT flight status page for this flight to view local times or setup timezone preferences in your user account.

Time Position Orientation Groundspeed Altitude Reporting Facility
EDT Latitude Longitude Course Direction KTS MPH feet Rate Location/Type
02:25PM 41.7833 -87.8167 14° North 252 290 2,600  Level Chicago TRACON
02:26PM 41.8333 -87.8000 14° North 272 313 3,000 1,740 Climbing Chicago TRACON
02:27PM 41.8333 -87.7000 90° East 265 305 6,300 3,360 Climbing Chicago TRACON
02:28PM 41.8167 -87.6000 103° East 294 338 10,100 3,780 Climbing Chicago TRACON
02:28PM 41.8144 -87.5600 94° East 284 327 11,400 2,880 Climbing Chicago Center
02:29PM 41.8000 -87.4283 98° East 359 413 14,100 3,000 Climbing Chicago Center
02:30PM 41.7853 -87.2822 98° East 395 455 17,700 2,940 Climbing Chicago Center
02:31PM 41.7681 -87.1283 98° East 411 473 20,200 1,560 Climbing Chicago Center
02:32PM 41.7611 -86.9564 93° East 455 524 21,000 360 Climbing Chicago Center
02:34PM 41.7653 -86.7822 88° East 469 540 21,000  Level Chicago Center
02:35PM 41.7661 -86.5678 90° East 483 556 21,000  Level Chicago Center
02:36PM 41.7678 -86.3922 89° East 477 549 21,000  Level Chicago Center
02:37PM 41.7661 -86.2239 91° East 462 532 21,000  Level Chicago Center
02:38PM 41.7614 -86.0586 92° East 448 516 21,000  Level Chicago Center
02:39PM 41.7572 -85.8925 92° East 448 516 21,000  Level Chicago Center
02:40PM 41.7533 -85.7197 92° East 461 531 21,000  Level Chicago Center
02:41PM 41.6781 -85.5514 121° Southeast 461 531 21,000 -60 Level Chicago Center
02:42PM 41.5833 -85.4481 141° Southeast 462 532 20,900 -300 Descending Chicago Center
02:43PM 41.4894 -85.3419 140° Southeast 461 531 20,400 -480 Descending Chicago Center
02:44PM 41.3939 -85.2364 140° Southeast 453 521 20,000 -240 Descending Chicago Center
02:45PM 41.2778 -85.1081 140° Southeast 454 522 20,000  Level Chicago Center
02:46PM 41.1800 -85.0025 141° Southeast 453 521 20,000 -960 Level Chicago Center
02:47PM 41.0842 -84.8956 140° Southeast 453 521 18,100 -2,040 Descending Chicago Center
02:48PM 40.9931 -84.7975 141° Southeast 434 499 15,900 -1,500 Descending Chicago Center
02:49PM 40.9050 -84.7022 141° Southeast 415 478 15,000 -480 Descending Chicago Center
02:50PM 40.7989 -84.5864 140° Southeast 413 475 15,000  Level Chicago Center
02:51PM 40.7097 -84.4914 141° Southeast 413 475 15,000  Level Chicago Center
02:52PM 40.6222 -84.3978 141° Southeast 408 470 15,000  Level Chicago Center
02:53PM 40.5444 -84.3153 141° Southeast 403 464 15,000 -360 Level Indianapolis Center
02:54PM 40.4575 -84.2261 142° Southeast 404 465 14,400 -780 Descending Indianapolis Center
02:55PM 40.3725 -84.1325 140° Southeast 401 461 13,600 -900 Descending Indianapolis Center
02:56PM 40.2464 -84.0967 168° South 380 437 12,500 -1,020 Descending Indianapolis Center
02:57PM 40.1692 -84.0811 171° South 376 433 11,700 -1,200 Descending Indianapolis Center
02:57PM 40.1433 -84.0750 170° South 375 432 11,300 -1,200 Descending Indianapolis Center
02:58PM 40.0844 -84.0644 172° South 318 366 10,600 -1,200 Descending Indianapolis Center
02:58PM 40.0544 -84.0572 170° South 334 384 10,100 -1,200 Descending Indianapolis Center
02:59PM 40.0061 -84.0461 170° South 285 328 9,400 -1,200 Descending Indianapolis Center
02:59PM 39.9772 -84.0325 160° South 295 339 8,900 -900 Descending Indianapolis Center
03:00PM 39.9289 -84.0169 166° South 280 322 8,500 -900 Descending Indianapolis Center
03:00PM 39.9025 -84.0083 166° South 280 322 8,000 -1,140 Descending Indianapolis Center
03:01PM 39.8567 -84.0022 174° South 260 299 7,400 -1,080 Descending Indianapolis Center
03:01PM 39.8328 -84.0161 204° Southwest 270 311 6,900 -1,320 Descending Indianapolis Center
03:02PM 39.7967 -84.0461 213° Southwest 247 284 6,100 -1,500 Descending Indianapolis Center
03:02PM 39.7639 -84.0772 216° Southwest 259 298 5,400 -1,020 Descending Indianapolis Center
03:03PM 39.7356 -84.1033 215° Southwest 248 285 5,100 -780 Descending Indianapolis Center
03:03PM 39.7097 -84.1253 213° Southwest 247 284 4,600 -840 Descending Indianapolis Center
03:04PM 39.6856 -84.1536 222° Southwest 227 261 4,300 -900 Descending Indianapolis Center
03:04PM 39.6675 -84.1769 225° Southwest 221 254 3,700 -1,080 Descending Indianapolis Center
03:06PM 39.5833 -84.2167 213° Southwest  Level FlightAware Approximate
03:13PM 39.5890 -84.2249 213° Southwest  Level Estimated
03:14PM 39.5890 -84.2249 213° Southwest  Level Estimated
03:15PM 39.5890 -84.2249 213° Southwest  Level Estimated